createdAt,value
2018-05-31T00:00:01.553Z,70.65
2018-05-31T00:02:28.946Z,70.56
2018-05-31T00:04:56.337Z,70.44
2018-05-31T00:07:23.745Z,70.25
2018-05-31T00:09:53.097Z,70.28
2018-05-31T00:12:20.509Z,70.17
2018-05-31T00:14:47.901Z,70.03
2018-05-31T00:17:15.297Z,69.89
2018-05-31T00:19:42.717Z,69.80
2018-05-31T00:22:10.106Z,69.82
2018-05-31T00:24:37.501Z,70.13
2018-05-31T00:27:04.935Z,70.19
2018-05-31T00:29:32.333Z,70.05
2018-05-31T00:31:59.730Z,69.97
2018-05-31T00:34:27.125Z,70.07
2018-05-31T00:36:54.525Z,70.08
2018-05-31T00:39:21.913Z,70.09
2018-05-31T00:41:49.330Z,69.87
2018-05-31T00:44:16.713Z,69.76
2018-05-31T00:46:44.113Z,69.82
2018-05-31T00:49:11.501Z,69.89
2018-05-31T00:51:38.889Z,69.91
2018-05-31T00:54:06.294Z,69.84
2018-05-31T00:56:33.697Z,69.81
2018-05-31T00:59:01.110Z,69.87
2018-05-31T01:01:28.498Z,69.97
2018-05-31T01:03:55.908Z,69.96
2018-05-31T01:06:23.293Z,70.10
2018-05-31T01:08:50.697Z,70.18
2018-05-31T01:11:18.104Z,70.25
2018-05-31T01:13:45.497Z,70.26
2018-05-31T01:16:12.893Z,70.25
2018-05-31T01:18:40.285Z,70.26
2018-05-31T01:21:07.693Z,70.33
2018-05-31T01:23:35.093Z,70.35
2018-05-31T01:26:02.489Z,70.25
2018-05-31T01:28:29.903Z,70.34
2018-05-31T01:30:57.281Z,70.25
2018-05-31T01:33:24.689Z,70.29
2018-05-31T01:35:52.081Z,70.30
2018-05-31T01:38:33.322Z,70.34
2018-05-31T01:41:00.717Z,70.30
2018-05-31T01:43:28.456Z,70.37
2018-05-31T01:45:55.841Z,70.35
2018-05-31T01:48:23.246Z,70.28
2018-05-31T01:50:50.649Z,70.25
2018-05-31T01:53:18.045Z,70.38
2018-05-31T01:55:45.458Z,70.38
2018-05-31T01:58:12.840Z,70.39
2018-05-31T02:00:40.241Z,70.47
2018-05-31T02:03:07.649Z,70.45
2018-05-31T02:05:35.045Z,70.28
2018-05-31T02:08:02.443Z,69.88
2018-05-31T02:10:29.833Z,70.09
2018-05-31T02:12:57.265Z,69.86
2018-05-31T02:15:24.661Z,69.69
2018-05-31T02:17:52.054Z,69.85
2018-05-31T02:20:19.465Z,69.67
2018-05-31T02:22:46.862Z,69.40
2018-05-31T02:25:14.265Z,69.45
2018-05-31T02:27:41.669Z,69.39
2018-05-31T02:30:09.067Z,69.46
2018-05-31T02:32:36.467Z,69.41
2018-05-31T02:35:03.853Z,69.48
2018-05-31T02:37:31.245Z,69.59
2018-05-31T02:39:58.639Z,69.73
2018-05-31T02:42:26.037Z,69.80
2018-05-31T02:44:53.429Z,69.83
2018-05-31T02:47:20.821Z,69.51
2018-05-31T02:49:48.225Z,69.64
2018-05-31T02:52:15.614Z,69.73
2018-05-31T02:54:43.009Z,69.70
2018-05-31T02:57:10.397Z,69.83
2018-05-31T02:59:37.789Z,69.89
2018-05-31T03:02:05.255Z,69.92
2018-05-31T03:04:32.640Z,70.00
2018-05-31T03:07:00.040Z,69.99
2018-05-31T03:09:27.437Z,70.00
2018-05-31T03:11:54.831Z,70.05
2018-05-31T03:14:22.228Z,70.08
2018-05-31T03:16:49.632Z,70.05
2018-05-31T03:19:17.045Z,69.84
2018-05-31T03:21:44.431Z,70.00
2018-05-31T03:24:11.828Z,69.85
2018-05-31T03:26:39.216Z,69.89
2018-05-31T03:29:06.620Z,69.89
2018-05-31T03:31:34.023Z,69.96
2018-05-31T03:34:01.423Z,70.00
2018-05-31T03:36:28.800Z,69.98
2018-05-31T03:38:56.205Z,69.96
2018-05-31T03:41:23.610Z,69.97
2018-05-31T03:43:50.997Z,70.02
2018-05-31T03:46:18.398Z,70.11
2018-05-31T03:48:45.797Z,70.16
2018-05-31T03:51:13.204Z,70.07
2018-05-31T03:53:40.605Z,69.98
2018-05-31T03:56:08.001Z,69.87
2018-05-31T03:58:35.405Z,69.92
2018-05-31T04:01:02.793Z,70.06
2018-05-31T04:03:30.218Z,70.18
2018-05-31T04:05:57.608Z,70.26
2018-05-31T04:08:25.005Z,70.38
2018-05-31T04:10:52.409Z,70.47
2018-05-31T04:13:20.656Z,70.22
2018-05-31T04:15:48.054Z,70.23
2018-05-31T04:18:15.445Z,70.27
2018-05-31T04:20:42.833Z,70.30
2018-05-31T04:23:10.229Z,70.54
2018-05-31T04:25:37.612Z,70.75
2018-05-31T04:28:05.025Z,70.98
2018-05-31T04:30:32.420Z,71.02
2018-05-31T04:32:59.809Z,70.96
2018-05-31T04:35:27.232Z,70.89
2018-05-31T04:37:54.624Z,70.72
2018-05-31T04:40:22.037Z,70.64
2018-05-31T04:42:49.441Z,70.61
2018-05-31T04:45:16.837Z,70.58
2018-05-31T04:47:44.249Z,70.62
2018-05-31T04:50:11.636Z,70.48
2018-05-31T04:52:39.055Z,70.38
2018-05-31T04:55:06.441Z,70.37
2018-05-31T04:57:33.843Z,70.49
2018-05-31T05:00:01.277Z,70.78
2018-05-31T05:02:28.673Z,71.04
2018-05-31T05:04:56.074Z,71.24
2018-05-31T05:07:23.843Z,70.98
2018-05-31T05:09:51.475Z,70.65
2018-05-31T05:12:18.917Z,70.46
2018-05-31T05:14:46.310Z,70.41
2018-05-31T05:17:13.717Z,70.49
2018-05-31T05:19:41.125Z,70.71
2018-05-31T05:22:08.817Z,70.89
2018-05-31T05:24:36.209Z,70.48
2018-05-31T05:27:03.701Z,70.05
2018-05-31T05:29:31.133Z,69.25
2018-05-31T05:31:58.532Z,68.96
2018-05-31T05:34:25.929Z,69.07
2018-05-31T05:36:53.337Z,69.32
2018-05-31T05:39:21.521Z,69.35
2018-05-31T05:41:48.913Z,68.73
2018-05-31T05:44:16.335Z,68.33
2018-05-31T05:46:43.733Z,68.15
2018-05-31T05:49:11.126Z,68.47
2018-05-31T05:51:38.529Z,69.12
2018-05-31T05:54:05.933Z,69.25
2018-05-31T05:56:33.326Z,69.13
2018-05-31T05:59:00.721Z,68.72
2018-05-31T06:01:28.117Z,68.14
2018-05-31T06:03:55.513Z,68.11
2018-05-31T06:06:22.912Z,68.18
2018-05-31T06:08:50.323Z,68.18
2018-05-31T06:11:17.738Z,68.03
2018-05-31T06:13:45.164Z,67.11
2018-05-31T06:16:12.566Z,67.25
2018-05-31T06:18:39.957Z,67.00
2018-05-31T06:21:07.373Z,67.36
2018-05-31T06:23:34.758Z,67.00
2018-05-31T06:26:02.170Z,66.90
2018-05-31T06:28:29.577Z,66.61
2018-05-31T06:30:56.976Z,66.81
2018-05-31T06:33:24.389Z,66.66
2018-05-31T06:35:51.794Z,66.12
2018-05-31T06:38:19.189Z,65.94
2018-05-31T06:40:46.576Z,66.64
2018-05-31T06:43:13.985Z,66.62
2018-05-31T06:45:41.401Z,66.83
2018-05-31T06:48:08.814Z,67.33
2018-05-31T06:50:36.230Z,67.70
2018-05-31T06:53:03.619Z,67.57
2018-05-31T06:55:31.018Z,67.07
2018-05-31T06:57:58.414Z,66.54
2018-05-31T07:00:26.149Z,66.82
2018-05-31T07:02:53.543Z,66.59
2018-05-31T07:05:20.934Z,67.35
2018-05-31T07:07:48.330Z,67.14
2018-05-31T07:10:15.713Z,67.24
2018-05-31T07:12:43.101Z,67.06
2018-05-31T07:15:10.504Z,67.52
2018-05-31T07:17:37.945Z,67.58
2018-05-31T07:20:05.338Z,67.29
2018-05-31T07:22:32.729Z,67.12
2018-05-31T07:25:00.182Z,66.07
2018-05-31T07:27:27.573Z,65.88
2018-05-31T07:29:54.971Z,65.65
2018-05-31T07:32:22.458Z,65.18
2018-05-31T07:34:49.846Z,65.35
2018-05-31T07:37:17.245Z,65.28
2018-05-31T07:39:44.632Z,65.68
2018-05-31T07:42:12.038Z,64.91
2018-05-31T07:44:39.467Z,64.56
2018-05-31T07:47:06.869Z,64.73
2018-05-31T07:49:34.292Z,64.74
2018-05-31T07:52:01.686Z,64.46
2018-05-31T07:54:29.101Z,63.83
2018-05-31T07:56:56.516Z,64.06
2018-05-31T07:59:23.905Z,64.28
2018-05-31T08:01:51.348Z,64.34
2018-05-31T08:04:18.741Z,64.80
2018-05-31T08:06:46.164Z,64.36
2018-05-31T08:09:13.574Z,64.34
2018-05-31T08:11:40.957Z,63.45
2018-05-31T08:14:08.349Z,62.79
2018-05-31T08:16:35.749Z,62.58
2018-05-31T08:19:03.137Z,62.10
2018-05-31T08:21:30.530Z,62.52
2018-05-31T08:23:57.968Z,62.63
2018-05-31T08:26:25.360Z,62.83
2018-05-31T08:28:52.758Z,62.82
2018-05-31T08:31:20.173Z,61.43
2018-05-31T08:33:47.545Z,60.97
2018-05-31T08:36:14.970Z,61.03
2018-05-31T08:38:42.390Z,61.19
2018-05-31T08:41:09.773Z,61.52
2018-05-31T08:43:37.169Z,62.52
2018-05-31T08:46:04.825Z,62.40
2018-05-31T08:48:32.213Z,62.21
2018-05-31T08:50:59.697Z,61.64
2018-05-31T08:53:27.127Z,61.50
2018-05-31T08:55:54.538Z,61.64
2018-05-31T08:58:22.037Z,62.10
2018-05-31T09:00:49.768Z,61.87
2018-05-31T09:03:17.191Z,62.40
2018-05-31T09:05:44.617Z,61.44
2018-05-31T09:08:12.090Z,61.04
2018-05-31T09:10:39.571Z,61.79
2018-05-31T09:13:07.044Z,62.23
2018-05-31T09:15:34.501Z,61.80
2018-05-31T09:18:01.991Z,60.99
2018-05-31T09:20:29.450Z,60.68
2018-05-31T09:22:56.922Z,60.41
2018-05-31T09:25:24.381Z,60.80
2018-05-31T09:27:51.820Z,60.22
2018-05-31T09:30:19.271Z,59.90
2018-05-31T09:32:47.020Z,60.31
2018-05-31T09:35:14.452Z,60.77
2018-05-31T09:37:41.899Z,60.92
2018-05-31T09:40:09.293Z,60.84
2018-05-31T09:42:36.681Z,61.57
2018-05-31T09:45:04.084Z,61.82
2018-05-31T09:47:31.485Z,61.56
2018-05-31T09:49:58.869Z,61.33
2018-05-31T09:52:26.300Z,61.37
2018-05-31T09:54:53.687Z,61.30
2018-05-31T09:57:21.073Z,61.10
2018-05-31T09:59:48.494Z,61.05
2018-05-31T10:02:15.889Z,60.66
2018-05-31T10:04:43.273Z,60.36
2018-05-31T10:07:10.677Z,59.99
2018-05-31T10:09:38.087Z,60.41
2018-05-31T10:12:05.469Z,60.57
2018-05-31T10:14:32.904Z,60.05
2018-05-31T10:17:00.289Z,60.75
2018-05-31T10:19:27.712Z,60.46
2018-05-31T10:21:55.129Z,59.78
2018-05-31T10:24:22.519Z,59.06
2018-05-31T10:26:50.546Z,59.09
2018-05-31T10:29:18.082Z,58.71
2018-05-31T10:31:45.869Z,59.34
2018-05-31T10:34:13.303Z,59.12
2018-05-31T10:36:41.045Z,58.09
2018-05-31T10:39:08.433Z,57.97
2018-05-31T10:41:35.825Z,57.20
2018-05-31T10:44:03.332Z,57.37
2018-05-31T10:46:30.742Z,56.69
2018-05-31T10:48:58.107Z,56.21
2018-05-31T10:51:25.505Z,56.03
2018-05-31T10:53:52.933Z,55.67
2018-05-31T10:56:20.297Z,54.83
2018-05-31T10:58:47.691Z,55.36
2018-05-31T11:01:15.107Z,55.83
2018-05-31T11:03:42.497Z,54.22
2018-05-31T11:06:09.890Z,54.17
2018-05-31T11:08:37.332Z,53.25
2018-05-31T11:11:04.697Z,52.27
2018-05-31T11:13:32.087Z,51.40
2018-05-31T11:15:59.550Z,51.15
2018-05-31T11:18:26.950Z,49.43
2018-05-31T11:20:54.333Z,50.03
2018-05-31T11:23:21.947Z,49.70
2018-05-31T11:25:49.352Z,50.13
2018-05-31T11:28:16.928Z,49.27
2018-05-31T11:30:44.651Z,49.62
2018-05-31T11:33:12.270Z,49.67
2018-05-31T11:35:39.827Z,48.03
2018-05-31T11:38:07.423Z,48.25
2018-05-31T11:40:34.973Z,47.82
2018-05-31T11:43:02.662Z,48.81
2018-05-31T11:45:30.263Z,47.48
2018-05-31T11:47:57.745Z,47.29
2018-05-31T11:50:25.402Z,46.42
2018-05-31T11:52:52.922Z,46.70
2018-05-31T11:55:20.329Z,47.06
2018-05-31T11:57:48.177Z,47.13
2018-05-31T12:00:15.568Z,46.66
2018-05-31T12:02:42.953Z,45.43
2018-05-31T12:05:10.367Z,45.34
2018-05-31T12:07:37.761Z,45.16
2018-05-31T12:10:05.149Z,45.24
2018-05-31T12:12:32.553Z,45.94
2018-05-31T12:14:59.949Z,46.11
2018-05-31T12:17:27.431Z,46.75
2018-05-31T12:19:54.749Z,47.43
2018-05-31T12:22:22.136Z,48.38
2018-05-31T12:24:49.528Z,48.68
2018-05-31T12:27:16.981Z,49.48
2018-05-31T12:29:44.376Z,49.74
2018-05-31T12:32:11.769Z,49.45
2018-05-31T12:34:39.191Z,49.46
2018-05-31T12:37:06.585Z,49.56
2018-05-31T12:39:33.989Z,47.46
2018-05-31T12:42:01.408Z,47.33
2018-05-31T12:44:28.805Z,46.81
2018-05-31T12:46:56.226Z,45.72
2018-05-31T12:49:23.618Z,45.35
2018-05-31T12:51:51.026Z,45.19
2018-05-31T12:54:18.443Z,44.62
2018-05-31T12:56:45.845Z,44.71
2018-05-31T12:59:13.292Z,45.01
2018-05-31T13:01:40.765Z,44.44
2018-05-31T13:04:08.182Z,44.61
2018-05-31T13:06:35.621Z,43.83
2018-05-31T13:09:03.006Z,43.62
2018-05-31T13:11:30.420Z,43.31
2018-05-31T13:13:57.821Z,42.64
2018-05-31T13:16:25.209Z,43.11
2018-05-31T13:18:52.630Z,42.57
2018-05-31T13:21:20.014Z,41.90
2018-05-31T13:23:47.402Z,41.88
2018-05-31T13:26:15.185Z,41.04
2018-05-31T13:28:42.586Z,41.88
2018-05-31T13:31:09.998Z,40.84
2018-05-31T13:33:37.436Z,40.98
2018-05-31T13:36:05.141Z,41.61
2018-05-31T13:38:32.537Z,41.40
2018-05-31T13:40:59.943Z,40.89
2018-05-31T13:43:27.342Z,40.38
2018-05-31T13:45:54.740Z,40.77
2018-05-31T13:48:22.153Z,40.99
2018-05-31T13:50:49.783Z,40.20
2018-05-31T13:53:17.165Z,40.69
2018-05-31T13:55:44.564Z,40.14
2018-05-31T13:58:11.957Z,40.53
2018-05-31T14:00:39.354Z,40.82
2018-05-31T14:03:06.777Z,41.23
2018-05-31T14:05:34.185Z,40.36
2018-05-31T14:08:01.650Z,39.46
2018-05-31T14:10:29.054Z,39.55
2018-05-31T14:12:56.455Z,39.61
2018-05-31T14:15:23.858Z,39.79
2018-05-31T14:17:51.265Z,39.65
2018-05-31T14:20:18.677Z,39.13
2018-05-31T14:22:46.069Z,38.67
2018-05-31T14:25:13.484Z,39.52
2018-05-31T14:27:40.897Z,39.23
2018-05-31T14:30:08.295Z,39.41
2018-05-31T14:32:35.715Z,39.66
2018-05-31T14:35:03.145Z,39.26
2018-05-31T14:37:30.540Z,38.63
2018-05-31T14:39:57.941Z,38.75
2018-05-31T14:42:25.336Z,38.72
2018-05-31T14:44:52.729Z,39.09
2018-05-31T14:47:20.134Z,38.69
2018-05-31T14:49:47.546Z,39.08
2018-05-31T14:52:14.941Z,40.35
2018-05-31T14:54:42.349Z,39.94
2018-05-31T14:57:09.747Z,40.60
2018-05-31T14:59:37.113Z,41.30
2018-05-31T15:02:04.761Z,41.34
2018-05-31T15:04:32.159Z,41.03
2018-05-31T15:06:59.577Z,41.16
2018-05-31T15:09:27.001Z,41.42
2018-05-31T15:11:54.425Z,41.22
2018-05-31T15:14:21.813Z,41.24
2018-05-31T15:16:49.542Z,41.15
2018-05-31T15:19:16.891Z,40.96
2018-05-31T15:21:44.313Z,40.98
2018-05-31T15:24:11.723Z,41.42
2018-05-31T15:26:39.109Z,40.13
2018-05-31T15:29:06.507Z,40.52
2018-05-31T15:31:34.222Z,40.74
2018-05-31T15:34:01.597Z,39.31
2018-05-31T15:36:29.013Z,39.40
2018-05-31T15:38:56.441Z,39.42
2018-05-31T15:41:23.832Z,38.67
2018-05-31T15:43:51.269Z,38.80
2018-05-31T15:46:18.676Z,38.82
2018-05-31T15:48:46.137Z,38.30
2018-05-31T15:51:13.561Z,38.11
2018-05-31T15:53:41.340Z,37.99
2018-05-31T15:56:08.712Z,37.77
2018-05-31T15:58:36.111Z,36.17
2018-05-31T16:01:03.523Z,34.83
2018-05-31T16:03:30.965Z,33.64
2018-05-31T16:05:58.549Z,32.51
2018-05-31T16:08:26.014Z,31.42
2018-05-31T16:10:53.478Z,30.56
2018-05-31T16:13:20.885Z,29.90
2018-05-31T16:15:48.405Z,29.27
2018-05-31T16:18:15.814Z,28.74
2018-05-31T16:20:43.264Z,28.38
2018-05-31T16:23:11.031Z,27.14
2018-05-31T16:25:38.444Z,27.36
2018-05-31T16:28:05.824Z,26.58
2018-05-31T16:30:33.231Z,27.01
2018-05-31T16:33:00.625Z,26.89
2018-05-31T16:35:28.027Z,26.22
2018-05-31T16:37:55.764Z,26.11
2018-05-31T16:40:23.149Z,26.43
2018-05-31T16:42:50.561Z,26.99
2018-05-31T16:45:17.957Z,28.17
2018-05-31T16:47:45.406Z,28.45
2018-05-31T16:50:12.843Z,28.98
2018-05-31T16:52:40.183Z,29.25
2018-05-31T16:55:07.573Z,28.67
2018-05-31T16:57:34.965Z,29.27
2018-05-31T17:00:02.406Z,29.42
2018-05-31T17:02:29.868Z,30.04
2018-05-31T17:04:57.268Z,30.27
2018-05-31T17:07:24.720Z,29.92
2018-05-31T17:09:52.109Z,30.63
2018-05-31T17:12:19.529Z,30.87
2018-05-31T17:14:46.917Z,31.78
2018-05-31T17:17:14.329Z,32.08
2018-05-31T17:19:41.718Z,32.43
2018-05-31T17:22:09.144Z,33.34
2018-05-31T17:24:36.535Z,33.64
2018-05-31T17:27:04.010Z,33.08
2018-05-31T17:29:31.428Z,33.64
2018-05-31T17:31:58.805Z,34.04
2018-05-31T17:34:26.217Z,34.28
2018-05-31T17:36:53.621Z,34.79
2018-05-31T17:39:21.029Z,35.27
2018-05-31T17:41:48.441Z,35.20
2018-05-31T17:44:15.845Z,35.46
2018-05-31T17:46:43.233Z,36.10
2018-05-31T17:49:10.625Z,37.01
2018-05-31T17:51:38.035Z,38.51
2018-05-31T17:54:05.425Z,39.26
2018-05-31T17:56:32.830Z,40.16
2018-05-31T17:59:00.209Z,40.90
2018-05-31T18:01:27.609Z,41.85
2018-05-31T18:03:55.005Z,42.26
2018-05-31T18:06:22.421Z,42.96
2018-05-31T18:08:49.816Z,43.79
2018-05-31T18:11:17.217Z,44.17
2018-05-31T18:13:44.649Z,44.98
2018-05-31T18:16:12.038Z,45.51
2018-05-31T18:18:39.434Z,46.20
2018-05-31T18:21:06.836Z,45.94
2018-05-31T18:23:34.237Z,46.12
2018-05-31T18:26:01.686Z,46.17
2018-05-31T18:28:29.117Z,46.63
2018-05-31T18:30:56.530Z,46.84
2018-05-31T18:33:23.976Z,47.01
2018-05-31T18:35:51.416Z,47.68
2018-05-31T18:38:18.857Z,48.00
2018-05-31T18:40:46.295Z,48.36
2018-05-31T18:43:13.715Z,48.64
2018-05-31T18:45:41.148Z,48.97
2018-05-31T18:48:08.560Z,49.43
2018-05-31T18:50:36.002Z,49.45
2018-05-31T18:53:03.440Z,49.43
2018-05-31T18:55:30.817Z,49.47
2018-05-31T18:57:58.225Z,49.39
2018-05-31T19:00:25.621Z,49.21
2018-05-31T19:02:53.281Z,49.40
2018-05-31T19:05:20.685Z,49.83
2018-05-31T19:07:48.078Z,49.87
2018-05-31T19:10:15.473Z,50.05
2018-05-31T19:12:48.398Z,50.45
2018-05-31T19:15:21.633Z,50.93
2018-05-31T19:17:43.246Z,51.06
2018-05-31T19:20:10.673Z,51.20
2018-05-31T19:22:38.075Z,51.59
2018-05-31T19:25:11.081Z,51.84
2018-05-31T19:27:38.501Z,52.11
2018-05-31T19:30:11.413Z,52.76
2018-05-31T19:32:38.920Z,52.91
2018-05-31T19:35:06.314Z,53.11
2018-05-31T19:37:33.722Z,53.35
2018-05-31T19:40:01.104Z,53.55
2018-05-31T19:42:34.137Z,53.82
2018-05-31T19:45:01.650Z,54.07
2018-05-31T19:47:29.050Z,54.25
2018-05-31T19:49:56.449Z,54.13
2018-05-31T19:52:29.446Z,54.36
2018-05-31T19:54:56.849Z,54.55
2018-05-31T19:57:24.240Z,54.81
2018-05-31T19:59:57.196Z,55.02
2018-05-31T20:02:30.382Z,55.23
2018-05-31T20:04:57.781Z,55.59
2018-05-31T20:07:25.189Z,55.74
2018-05-31T20:09:52.585Z,55.78
2018-05-31T20:12:21.258Z,56.10
2018-05-31T20:14:48.009Z,56.65
2018-05-31T20:17:15.486Z,56.93
2018-05-31T20:19:42.878Z,57.21
2018-05-31T20:22:10.277Z,57.32
2018-05-31T20:24:37.678Z,57.48
2018-05-31T20:27:05.080Z,57.86
2018-05-31T20:29:32.485Z,58.10
2018-05-31T20:31:59.897Z,58.51
2018-05-31T20:34:27.284Z,58.90
2018-05-31T20:36:54.689Z,58.95
2018-05-31T20:39:22.092Z,59.35
2018-05-31T20:41:49.497Z,59.54
2018-05-31T20:44:16.911Z,59.69
2018-05-31T20:46:44.297Z,59.93
2018-05-31T20:49:11.726Z,60.18
2018-05-31T20:51:39.154Z,60.29
2018-05-31T20:54:06.550Z,60.29
2018-05-31T20:56:33.983Z,60.32
2018-05-31T20:59:01.392Z,60.42
2018-05-31T21:01:28.876Z,60.47
2018-05-31T21:03:56.261Z,60.50
2018-05-31T21:06:24.000Z,60.73
2018-05-31T21:08:51.500Z,60.83
2018-05-31T21:11:18.935Z,60.90
2018-05-31T21:13:46.363Z,61.19
2018-05-31T21:16:13.765Z,61.34
2018-05-31T21:18:41.177Z,61.31
2018-05-31T21:21:08.596Z,61.45
2018-05-31T21:23:36.002Z,61.47
2018-05-31T21:26:03.455Z,61.52
2018-05-31T21:28:30.809Z,61.87
2018-05-31T21:30:58.244Z,61.96
2018-05-31T21:33:25.642Z,62.00
2018-05-31T21:35:53.039Z,61.95
2018-05-31T21:38:20.490Z,61.84
2018-05-31T21:40:47.888Z,61.84
2018-05-31T21:43:15.303Z,61.94
2018-05-31T21:45:42.698Z,61.94
2018-05-31T21:48:10.108Z,61.98
2018-05-31T21:50:37.513Z,61.96
2018-05-31T21:53:04.918Z,62.06
2018-05-31T21:55:32.329Z,62.17
2018-05-31T21:57:59.743Z,62.38
2018-05-31T22:00:31.102Z,62.53
2018-05-31T22:02:58.514Z,62.73
2018-05-31T22:05:25.908Z,62.75
2018-05-31T22:07:53.317Z,62.88
2018-05-31T22:10:20.717Z,62.86
2018-05-31T22:12:48.151Z,62.92
2018-05-31T22:15:15.556Z,63.16
2018-05-31T22:17:42.946Z,63.39
2018-05-31T22:20:10.369Z,63.56
2018-05-31T22:22:37.773Z,63.51
2018-05-31T22:25:05.216Z,63.47
2018-05-31T22:27:32.621Z,63.58
2018-05-31T22:30:00.013Z,63.63
2018-05-31T22:32:27.697Z,63.77
2018-05-31T22:34:55.091Z,63.91
2018-05-31T22:37:22.489Z,63.99
2018-05-31T22:39:49.893Z,64.18
2018-05-31T22:42:17.296Z,64.26
2018-05-31T22:44:44.734Z,64.22
2018-05-31T22:47:12.153Z,64.08
2018-05-31T22:49:39.574Z,63.97
2018-05-31T22:52:06.973Z,64.00
2018-05-31T22:54:34.371Z,64.00
2018-05-31T22:57:01.837Z,64.23
2018-05-31T22:59:29.250Z,64.43
2018-05-31T23:01:56.641Z,64.61
2018-05-31T23:04:24.053Z,64.70
2018-05-31T23:06:51.457Z,64.55
2018-05-31T23:09:18.894Z,64.56
2018-05-31T23:11:46.272Z,64.61
2018-05-31T23:14:13.748Z,64.75
2018-05-31T23:16:41.113Z,64.91
2018-05-31T23:19:08.510Z,65.19
2018-05-31T23:21:35.921Z,65.22
2018-05-31T23:24:03.325Z,65.26
2018-05-31T23:26:30.721Z,65.54
2018-05-31T23:28:58.130Z,65.63
2018-05-31T23:31:25.529Z,65.63
2018-05-31T23:33:52.953Z,65.69
2018-05-31T23:36:20.350Z,65.83
2018-05-31T23:38:47.744Z,65.92
2018-05-31T23:41:15.161Z,65.98
2018-05-31T23:43:42.567Z,65.96
2018-05-31T23:46:09.968Z,66.19
2018-05-31T23:48:37.369Z,66.24
2018-05-31T23:51:04.781Z,66.06
2018-05-31T23:53:32.186Z,66.19
2018-05-31T23:55:59.586Z,66.08
2018-05-31T23:58:27.023Z,66.28
